Estación Meteorológica Peña el Pijo (Robertgarden) [ 04/25/18 03:02:01 CEST ]

Fecha Hora Presion(HPa) Temp (°C) Humedad % Rocio (°C) Viento ( m/s) Direccion Lluvia 1Hora(mm) Lluvia 24H(mm) LLuvia Total(mm)
2017-Nov-23 01:01:56 1007.700 0.8 51 -8.1         1468.01
2017-Nov-23 02:03:10 1007.700 2.2 47 -8.0         1468.01
2017-Nov-23 03:01:56 1007.800 3.6 45 -7.3         1468.01
2017-Nov-23 04:01:41 1008.000 2.4 49 -7.2         1468.01
2017-Nov-23 05:01:34 1007.800 1.4 54 -6.9         1468.01
2017-Nov-23 06:01:30 1008.100 2.5 52 -6.4         1468.01
2017-Nov-23 07:01:47 1009.000 3.9 51 -5.3         1468.01
2017-Nov-23 08:01:39 1009.300 3.9 52 -5.1         1468.01
2017-Nov-23 09:01:38 1010.000 5.1 53 -3.8         1468.01
2017-Nov-23 10:01:46 1010.600 13.7 38 -0.4         1468.01
2017-Nov-23 11:01:39 1011.100 14.3 35 -1.1         1468.01
2017-Nov-23 12:01:43 1010.900 16.9 33 0.4         1468.01
2017-Nov-23 13:01:44 1010.600 20.1 29 1.4         1468.01
2017-Nov-23 14:02:09 1010.200 21.9 23 -0.4         1468.01
2017-Nov-23 15:01:55 1010.100 21.1 23 -1.0         1468.01
2017-Nov-23 16:01:49 1010.200 19.6 24 -1.8         1468.01
2017-Nov-23 17:01:39 1010.400 17.0 27 -2.3         1468.01
2017-Nov-23 18:01:56 1011.100 13.3 32 -3.1         1468.01
2017-Nov-23 19:02:02 1011.400 10.1 38 -3.7         1468.01
2017-Nov-23 20:01:51 1011.900 8.1 43 -3.8         1468.01
2017-Nov-23 21:01:56 1012.400 8.2 43 -3.7         1468.01
2017-Nov-23 22:01:51 1012.700 7.3 45 -3.9         1468.01
2017-Nov-23 23:01:53 1012.800 6.1 48 -4.1         1468.01

Temperatura Máxima:21°    Temperatura Mínima:
Presión Máxima:1012.800 Hpa    Presión Mínima:1007.700 Hpa


Volver